sensor_id;sensor_type;location;lat;lon;timestamp;temperature;humidity
12504;DHT22;6316;48.118;-1.690;2023-05-07T00:02:24;17.30;99.90
12504;DHT22;6316;48.118;-1.690;2023-05-07T00:04:50;17.30;99.90
12504;DHT22;6316;48.118;-1.690;2023-05-07T00:07:18;17.20;99.90
12504;DHT22;6316;48.118;-1.690;2023-05-07T00:09:43;17.30;99.90
12504;DHT22;6316;48.118;-1.690;2023-05-07T00:12:09;17.20;99.90
12504;DHT22;6316;48.118;-1.690;2023-05-07T00:14:35;17.20;99.90
12504;DHT22;6316;48.118;-1.690;2023-05-07T00:17:01;17.20;99.90
12504;DHT22;6316;48.118;-1.690;2023-05-07T00:19:27;17.20;99.90
12504;DHT22;6316;48.118;-1.690;2023-05-07T00:21:52;17.20;99.90
12504;DHT22;6316;48.118;-1.690;2023-05-07T00:24:21;17.20;99.90
12504;DHT22;6316;48.118;-1.690;2023-05-07T00:26:47;17.20;99.90
12504;DHT22;6316;48.118;-1.690;2023-05-07T00:29:13;17.20;99.90
12504;DHT22;6316;48.118;-1.690;2023-05-07T00:31:38;17.20;99.90
12504;DHT22;6316;48.118;-1.690;2023-05-07T00:34:04;17.20;99.90
12504;DHT22;6316;48.118;-1.690;2023-05-07T00:36:29;17.10;99.90
12504;DHT22;6316;48.118;-1.690;2023-05-07T00:38:58;17.10;99.90
12504;DHT22;6316;48.118;-1.690;2023-05-07T00:41:25;17.10;99.90
12504;DHT22;6316;48.118;-1.690;2023-05-07T00:43:51;17.10;99.90
12504;DHT22;6316;48.118;-1.690;2023-05-07T00:46:20;17.10;99.90
12504;DHT22;6316;48.118;-1.690;2023-05-07T00:48:47;17.10;99.90
12504;DHT22;6316;48.118;-1.690;2023-05-07T00:51:13;17.10;99.90
12504;DHT22;6316;48.118;-1.690;2023-05-07T00:53:39;17.00;99.90
12504;DHT22;6316;48.118;-1.690;2023-05-07T00:56:06;17.00;99.90
12504;DHT22;6316;48.118;-1.690;2023-05-07T00:58:32;17.00;99.90
12504;DHT22;6316;48.118;-1.690;2023-05-07T01:00:59;17.00;99.90
12504;DHT22;6316;48.118;-1.690;2023-05-07T01:03:25;17.00;99.90
12504;DHT22;6316;48.118;-1.690;2023-05-07T01:05:52;17.00;99.90
12504;DHT22;6316;48.118;-1.690;2023-05-07T01:08:20;16.90;99.90
12504;DHT22;6316;48.118;-1.690;2023-05-07T01:10:47;16.80;99.90
12504;DHT22;6316;48.118;-1.690;2023-05-07T01:13:14;16.80;99.90
12504;DHT22;6316;48.118;-1.690;2023-05-07T01:15:40;16.80;99.90
12504;DHT22;6316;48.118;-1.690;2023-05-07T01:18:07;16.70;99.90
12504;DHT22;6316;48.118;-1.690;2023-05-07T01:20:32;16.60;99.90
12504;DHT22;6316;48.118;-1.690;2023-05-07T01:23:00;16.60;99.90
12504;DHT22;6316;48.118;-1.690;2023-05-07T01:25:26;16.50;99.90
12504;DHT22;6316;48.118;-1.690;2023-05-07T01:27:52;16.50;99.90
12504;DHT22;6316;48.118;-1.690;2023-05-07T01:30:18;16.40;99.90
12504;DHT22;6316;48.118;-1.690;2023-05-07T01:33:06;16.40;99.90
12504;DHT22;6316;48.118;-1.690;2023-05-07T01:35:39;16.40;99.90
12504;DHT22;6316;48.118;-1.690;2023-05-07T01:38:06;16.40;99.90
12504;DHT22;6316;48.118;-1.690;2023-05-07T01:40:33;16.30;99.90
12504;DHT22;6316;48.118;-1.690;2023-05-07T01:43:03;16.30;99.90
12504;DHT22;6316;48.118;-1.690;2023-05-07T01:45:30;16.30;99.90
12504;DHT22;6316;48.118;-1.690;2023-05-07T01:47:58;16.30;99.90
12504;DHT22;6316;48.118;-1.690;2023-05-07T01:50:25;16.30;99.90
12504;DHT22;6316;48.118;-1.690;2023-05-07T01:52:51;16.20;99.90
12504;DHT22;6316;48.118;-1.690;2023-05-07T01:55:16;16.20;99.90
12504;DHT22;6316;48.118;-1.690;2023-05-07T01:57:42;16.20;99.90
12504;DHT22;6316;48.118;-1.690;2023-05-07T02:00:08;16.20;99.90
12504;DHT22;6316;48.118;-1.690;2023-05-07T02:02:34;16.10;99.90
12504;DHT22;6316;48.118;-1.690;2023-05-07T02:05:01;16.10;99.90
12504;DHT22;6316;48.118;-1.690;2023-05-07T02:07:27;16.00;99.90
12504;DHT22;6316;48.118;-1.690;2023-05-07T02:09:53;16.00;99.90
12504;DHT22;6316;48.118;-1.690;2023-05-07T02:12:20;16.00;99.90
12504;DHT22;6316;48.118;-1.690;2023-05-07T02:14:46;16.00;99.90
12504;DHT22;6316;48.118;-1.690;2023-05-07T02:17:12;15.90;99.90
12504;DHT22;6316;48.118;-1.690;2023-05-07T02:19:37;15.90;99.90
12504;DHT22;6316;48.118;-1.690;2023-05-07T02:22:03;15.90;99.90
12504;DHT22;6316;48.118;-1.690;2023-05-07T02:24:29;15.80;99.90
12504;DHT22;6316;48.118;-1.690;2023-05-07T02:26:54;15.90;99.90
12504;DHT22;6316;48.118;-1.690;2023-05-07T02:29:20;15.90;99.90
12504;DHT22;6316;48.118;-1.690;2023-05-07T02:31:46;15.80;99.90
12504;DHT22;6316;48.118;-1.690;2023-05-07T02:34:12;15.80;99.90
12504;DHT22;6316;48.118;-1.690;2023-05-07T02:36:38;15.90;99.90
12504;DHT22;6316;48.118;-1.690;2023-05-07T02:39:03;15.90;99.90
12504;DHT22;6316;48.118;-1.690;2023-05-07T02:41:29;15.90;99.90
12504;DHT22;6316;48.118;-1.690;2023-05-07T02:43:55;15.90;99.90
12504;DHT22;6316;48.118;-1.690;2023-05-07T02:46:20;15.90;99.90
12504;DHT22;6316;48.118;-1.690;2023-05-07T02:48:46;16.00;99.90
12504;DHT22;6316;48.118;-1.690;2023-05-07T02:51:12;16.00;99.90
12504;DHT22;6316;48.118;-1.690;2023-05-07T02:53:37;16.00;99.90
12504;DHT22;6316;48.118;-1.690;2023-05-07T02:56:03;16.10;99.90
12504;DHT22;6316;48.118;-1.690;2023-05-07T02:58:29;16.10;99.90
12504;DHT22;6316;48.118;-1.690;2023-05-07T03:00:54;16.10;99.90
12504;DHT22;6316;48.118;-1.690;2023-05-07T03:03:21;16.10;99.90
12504;DHT22;6316;48.118;-1.690;2023-05-07T03:05:46;16.10;99.90
12504;DHT22;6316;48.118;-1.690;2023-05-07T03:08:12;16.10;99.90
12504;DHT22;6316;48.118;-1.690;2023-05-07T03:10:38;16.10;99.90
12504;DHT22;6316;48.118;-1.690;2023-05-07T03:13:04;16.10;99.90
12504;DHT22;6316;48.118;-1.690;2023-05-07T03:15:30;16.10;99.90
12504;DHT22;6316;48.118;-1.690;2023-05-07T03:17:56;16.10;99.90
12504;DHT22;6316;48.118;-1.690;2023-05-07T03:20:21;16.20;99.90
12504;DHT22;6316;48.118;-1.690;2023-05-07T03:22:47;16.10;99.90
12504;DHT22;6316;48.118;-1.690;2023-05-07T03:25:13;16.10;99.90
12504;DHT22;6316;48.118;-1.690;2023-05-07T03:27:40;16.10;99.90
12504;DHT22;6316;48.118;-1.690;2023-05-07T03:30:07;16.10;99.90
12504;DHT22;6316;48.118;-1.690;2023-05-07T03:32:34;16.20;99.90
12504;DHT22;6316;48.118;-1.690;2023-05-07T03:35:01;16.20;99.90
12504;DHT22;6316;48.118;-1.690;2023-05-07T03:37:26;16.20;99.90
12504;DHT22;6316;48.118;-1.690;2023-05-07T03:39:52;16.20;99.90
12504;DHT22;6316;48.118;-1.690;2023-05-07T03:42:17;16.20;99.90
12504;DHT22;6316;48.118;-1.690;2023-05-07T03:44:43;16.20;99.90
12504;DHT22;6316;48.118;-1.690;2023-05-07T03:47:09;16.20;99.90
12504;DHT22;6316;48.118;-1.690;2023-05-07T03:49:36;16.10;99.90
12504;DHT22;6316;48.118;-1.690;2023-05-07T03:52:02;16.20;99.90
12504;DHT22;6316;48.118;-1.690;2023-05-07T03:54:28;16.10;99.90
12504;DHT22;6316;48.118;-1.690;2023-05-07T03:56:53;16.10;99.90
12504;DHT22;6316;48.118;-1.690;2023-05-07T03:59:19;16.10;99.90
12504;DHT22;6316;48.118;-1.690;2023-05-07T04:01:44;16.10;99.90
12504;DHT22;6316;48.118;-1.690;2023-05-07T04:04:10;16.10;99.90
12504;DHT22;6316;48.118;-1.690;2023-05-07T04:06:36;16.10;99.90
12504;DHT22;6316;48.118;-1.690;2023-05-07T04:09:02;16.10;99.90
12504;DHT22;6316;48.118;-1.690;2023-05-07T04:11:27;16.10;99.90
12504;DHT22;6316;48.118;-1.690;2023-05-07T04:13:53;16.10;99.90
12504;DHT22;6316;48.118;-1.690;2023-05-07T04:16:18;16.10;99.90
12504;DHT22;6316;48.118;-1.690;2023-05-07T04:18:44;16.10;99.90
12504;DHT22;6316;48.118;-1.690;2023-05-07T04:21:20;16.10;99.90
12504;DHT22;6316;48.118;-1.690;2023-05-07T04:23:47;16.10;99.90
12504;DHT22;6316;48.118;-1.690;2023-05-07T04:26:13;16.10;99.90
12504;DHT22;6316;48.118;-1.690;2023-05-07T04:28:39;16.10;99.90
12504;DHT22;6316;48.118;-1.690;2023-05-07T04:31:05;16.10;99.90
12504;DHT22;6316;48.118;-1.690;2023-05-07T04:33:31;16.10;99.90
12504;DHT22;6316;48.118;-1.690;2023-05-07T04:35:57;16.10;99.90
12504;DHT22;6316;48.118;-1.690;2023-05-07T04:38:22;16.10;99.90
12504;DHT22;6316;48.118;-1.690;2023-05-07T04:40:49;16.10;99.90
12504;DHT22;6316;48.118;-1.690;2023-05-07T04:43:15;16.10;99.90
12504;DHT22;6316;48.118;-1.690;2023-05-07T04:45:41;16.10;99.90
12504;DHT22;6316;48.118;-1.690;2023-05-07T04:48:08;16.10;99.90
12504;DHT22;6316;48.118;-1.690;2023-05-07T04:50:34;16.10;99.90
12504;DHT22;6316;48.118;-1.690;2023-05-07T04:53:00;16.10;99.90
12504;DHT22;6316;48.118;-1.690;2023-05-07T04:55:26;16.10;99.90
12504;DHT22;6316;48.118;-1.690;2023-05-07T04:57:53;16.10;99.90
12504;DHT22;6316;48.118;-1.690;2023-05-07T05:00:18;16.10;99.90
12504;DHT22;6316;48.118;-1.690;2023-05-07T05:02:45;16.10;99.90
12504;DHT22;6316;48.118;-1.690;2023-05-07T05:05:11;16.10;99.90
12504;DHT22;6316;48.118;-1.690;2023-05-07T05:07:37;16.10;99.90
12504;DHT22;6316;48.118;-1.690;2023-05-07T05:10:04;16.10;99.90
12504;DHT22;6316;48.118;-1.690;2023-05-07T05:12:30;16.10;99.90
12504;DHT22;6316;48.118;-1.690;2023-05-07T05:14:56;16.20;99.90
12504;DHT22;6316;48.118;-1.690;2023-05-07T05:17:21;16.10;99.90
12504;DHT22;6316;48.118;-1.690;2023-05-07T05:19:47;16.20;99.90
12504;DHT22;6316;48.118;-1.690;2023-05-07T05:22:13;16.20;99.90
12504;DHT22;6316;48.118;-1.690;2023-05-07T05:24:38;16.10;99.90
12504;DHT22;6316;48.118;-1.690;2023-05-07T05:27:04;16.20;99.90
12504;DHT22;6316;48.118;-1.690;2023-05-07T05:29:30;16.20;99.90
12504;DHT22;6316;48.118;-1.690;2023-05-07T05:31:57;16.20;99.90
12504;DHT22;6316;48.118;-1.690;2023-05-07T05:34:22;16.20;99.90
12504;DHT22;6316;48.118;-1.690;2023-05-07T05:36:48;16.20;99.90
12504;DHT22;6316;48.118;-1.690;2023-05-07T05:39:14;16.20;99.90
12504;DHT22;6316;48.118;-1.690;2023-05-07T05:41:39;16.10;99.90
12504;DHT22;6316;48.118;-1.690;2023-05-07T05:44:06;16.10;99.90
12504;DHT22;6316;48.118;-1.690;2023-05-07T05:46:31;16.20;99.90
12504;DHT22;6316;48.118;-1.690;2023-05-07T05:48:57;16.10;99.90
12504;DHT22;6316;48.118;-1.690;2023-05-07T05:51:23;16.10;99.90
12504;DHT22;6316;48.118;-1.690;2023-05-07T05:53:48;16.10;99.90
12504;DHT22;6316;48.118;-1.690;2023-05-07T05:56:15;16.10;99.90
12504;DHT22;6316;48.118;-1.690;2023-05-07T05:58:41;16.10;99.90
12504;DHT22;6316;48.118;-1.690;2023-05-07T06:01:07;16.10;99.90
12504;DHT22;6316;48.118;-1.690;2023-05-07T06:03:32;16.20;99.90
12504;DHT22;6316;48.118;-1.690;2023-05-07T06:05:58;16.20;99.90
12504;DHT22;6316;48.118;-1.690;2023-05-07T06:08:25;16.30;99.90
12504;DHT22;6316;48.118;-1.690;2023-05-07T06:10:51;16.30;99.90
12504;DHT22;6316;48.118;-1.690;2023-05-07T06:13:17;16.40;99.90
12504;DHT22;6316;48.118;-1.690;2023-05-07T06:15:42;16.40;99.90
12504;DHT22;6316;48.118;-1.690;2023-05-07T06:18:08;16.50;99.90
12504;DHT22;6316;48.118;-1.690;2023-05-07T06:20:34;16.50;99.90
12504;DHT22;6316;48.118;-1.690;2023-05-07T06:22:59;16.60;99.90
12504;DHT22;6316;48.118;-1.690;2023-05-07T06:25:25;16.70;99.90
12504;DHT22;6316;48.118;-1.690;2023-05-07T06:27:51;16.80;99.90
12504;DHT22;6316;48.118;-1.690;2023-05-07T06:30:16;17.00;99.90
12504;DHT22;6316;48.118;-1.690;2023-05-07T06:32:42;17.20;99.90
12504;DHT22;6316;48.118;-1.690;2023-05-07T06:35:08;17.40;99.90
12504;DHT22;6316;48.118;-1.690;2023-05-07T06:37:33;17.50;99.90
12504;DHT22;6316;48.118;-1.690;2023-05-07T06:39:59;17.60;99.90
12504;DHT22;6316;48.118;-1.690;2023-05-07T06:42:25;17.70;99.90
12504;DHT22;6316;48.118;-1.690;2023-05-07T06:44:51;17.80;99.90
12504;DHT22;6316;48.118;-1.690;2023-05-07T06:47:17;17.70;99.90
12504;DHT22;6316;48.118;-1.690;2023-05-07T06:49:43;17.70;99.90
12504;DHT22;6316;48.118;-1.690;2023-05-07T06:52:08;17.60;99.90
12504;DHT22;6316;48.118;-1.690;2023-05-07T06:54:35;17.60;99.90
12504;DHT22;6316;48.118;-1.690;2023-05-07T06:57:01;17.60;99.90
12504;DHT22;6316;48.118;-1.690;2023-05-07T06:59:26;17.50;99.90
12504;DHT22;6316;48.118;-1.690;2023-05-07T07:01:52;17.40;99.90
12504;DHT22;6316;48.118;-1.690;2023-05-07T07:04:17;17.40;99.90
12504;DHT22;6316;48.118;-1.690;2023-05-07T07:06:43;17.30;99.90
12504;DHT22;6316;48.118;-1.690;2023-05-07T07:09:09;17.20;99.90
12504;DHT22;6316;48.118;-1.690;2023-05-07T07:11:34;17.10;99.90
12504;DHT22;6316;48.118;-1.690;2023-05-07T07:14:00;17.00;99.90
12504;DHT22;6316;48.118;-1.690;2023-05-07T07:16:26;16.90;99.90
12504;DHT22;6316;48.118;-1.690;2023-05-07T07:18:52;16.80;99.90
12504;DHT22;6316;48.118;-1.690;2023-05-07T07:21:17;16.70;99.90
12504;DHT22;6316;48.118;-1.690;2023-05-07T07:23:43;16.70;99.90
12504;DHT22;6316;48.118;-1.690;2023-05-07T07:26:08;16.60;99.90
12504;DHT22;6316;48.118;-1.690;2023-05-07T07:28:34;16.60;99.90
12504;DHT22;6316;48.118;-1.690;2023-05-07T07:31:00;16.60;99.90
12504;DHT22;6316;48.118;-1.690;2023-05-07T07:33:25;16.60;99.90
12504;DHT22;6316;48.118;-1.690;2023-05-07T07:35:51;16.50;99.90
12504;DHT22;6316;48.118;-1.690;2023-05-07T07:38:16;16.50;99.90
12504;DHT22;6316;48.118;-1.690;2023-05-07T07:40:42;16.50;99.90
12504;DHT22;6316;48.118;-1.690;2023-05-07T07:43:09;16.50;99.90
12504;DHT22;6316;48.118;-1.690;2023-05-07T07:45:35;16.50;99.90
12504;DHT22;6316;48.118;-1.690;2023-05-07T07:48:00;16.50;99.90
12504;DHT22;6316;48.118;-1.690;2023-05-07T07:50:26;16.60;99.90
12504;DHT22;6316;48.118;-1.690;2023-05-07T07:52:52;16.60;99.90
12504;DHT22;6316;48.118;-1.690;2023-05-07T07:55:19;16.60;99.90
12504;DHT22;6316;48.118;-1.690;2023-05-07T07:57:47;16.70;99.90
12504;DHT22;6316;48.118;-1.690;2023-05-07T08:00:13;16.70;99.90
12504;DHT22;6316;48.118;-1.690;2023-05-07T08:02:39;16.70;99.90
12504;DHT22;6316;48.118;-1.690;2023-05-07T08:05:05;16.70;99.90
12504;DHT22;6316;48.118;-1.690;2023-05-07T08:07:30;16.80;99.90
12504;DHT22;6316;48.118;-1.690;2023-05-07T08:09:56;16.80;99.90
12504;DHT22;6316;48.118;-1.690;2023-05-07T08:12:22;16.80;99.90
12504;DHT22;6316;48.118;-1.690;2023-05-07T08:14:47;16.80;99.90
12504;DHT22;6316;48.118;-1.690;2023-05-07T08:17:13;16.80;99.90
12504;DHT22;6316;48.118;-1.690;2023-05-07T08:19:41;16.80;99.90
12504;DHT22;6316;48.118;-1.690;2023-05-07T08:22:07;16.80;99.90
12504;DHT22;6316;48.118;-1.690;2023-05-07T08:24:33;16.90;99.90
12504;DHT22;6316;48.118;-1.690;2023-05-07T08:26:59;16.90;99.90
12504;DHT22;6316;48.118;-1.690;2023-05-07T08:29:27;17.00;99.90
12504;DHT22;6316;48.118;-1.690;2023-05-07T08:31:52;17.10;99.90
12504;DHT22;6316;48.118;-1.690;2023-05-07T08:34:18;17.10;99.90
12504;DHT22;6316;48.118;-1.690;2023-05-07T08:36:47;17.20;99.90
12504;DHT22;6316;48.118;-1.690;2023-05-07T08:39:15;17.30;99.90
12504;DHT22;6316;48.118;-1.690;2023-05-07T08:41:44;17.40;99.90
12504;DHT22;6316;48.118;-1.690;2023-05-07T08:44:13;17.50;99.90
12504;DHT22;6316;48.118;-1.690;2023-05-07T08:46:42;17.60;99.90
12504;DHT22;6316;48.118;-1.690;2023-05-07T08:49:12;17.80;99.90
12504;DHT22;6316;48.118;-1.690;2023-05-07T08:51:38;18.30;99.90
12504;DHT22;6316;48.118;-1.690;2023-05-07T08:54:04;18.90;99.90
12504;DHT22;6316;48.118;-1.690;2023-05-07T08:56:30;19.40;99.90
12504;DHT22;6316;48.118;-1.690;2023-05-07T08:58:56;19.80;99.90
12504;DHT22;6316;48.118;-1.690;2023-05-07T09:01:24;20.50;99.90
12504;DHT22;6316;48.118;-1.690;2023-05-07T09:03:50;21.50;99.90
12504;DHT22;6316;48.118;-1.690;2023-05-07T09:06:16;22.20;99.90
12504;DHT22;6316;48.118;-1.690;2023-05-07T09:08:52;22.10;99.90
12504;DHT22;6316;48.118;-1.690;2023-05-07T09:11:22;21.80;99.90
12504;DHT22;6316;48.118;-1.690;2023-05-07T09:13:52;21.50;99.90
12504;DHT22;6316;48.118;-1.690;2023-05-07T09:16:20;21.20;99.90
12504;DHT22;6316;48.118;-1.690;2023-05-07T09:18:47;21.00;99.90
12504;DHT22;6316;48.118;-1.690;2023-05-07T09:21:17;20.90;99.90
12504;DHT22;6316;48.118;-1.690;2023-05-07T09:23:43;20.90;99.90
12504;DHT22;6316;48.118;-1.690;2023-05-07T09:26:08;20.80;99.90
12504;DHT22;6316;48.118;-1.690;2023-05-07T09:28:43;20.70;99.90
12504;DHT22;6316;48.118;-1.690;2023-05-07T09:31:10;20.70;99.90
12504;DHT22;6316;48.118;-1.690;2023-05-07T09:33:36;20.60;99.90
12504;DHT22;6316;48.118;-1.690;2023-05-07T09:36:03;20.50;99.90
12504;DHT22;6316;48.118;-1.690;2023-05-07T09:38:30;20.50;99.90
12504;DHT22;6316;48.118;-1.690;2023-05-07T09:41:11;20.50;99.90
12504;DHT22;6316;48.118;-1.690;2023-05-07T09:43:38;20.50;99.90
12504;DHT22;6316;48.118;-1.690;2023-05-07T09:46:12;20.50;99.90
12504;DHT22;6316;48.118;-1.690;2023-05-07T09:48:42;20.60;99.90
12504;DHT22;6316;48.118;-1.690;2023-05-07T09:51:30;20.70;99.90
12504;DHT22;6316;48.118;-1.690;2023-05-07T09:53:59;20.80;99.90
12504;DHT22;6316;48.118;-1.690;2023-05-07T09:56:29;20.80;99.90
12504;DHT22;6316;48.118;-1.690;2023-05-07T09:58:59;20.80;99.90
12504;DHT22;6316;48.118;-1.690;2023-05-07T10:01:26;20.70;99.90
12504;DHT22;6316;48.118;-1.690;2023-05-07T10:03:52;20.60;99.90
12504;DHT22;6316;48.118;-1.690;2023-05-07T10:06:19;20.50;99.90
12504;DHT22;6316;48.118;-1.690;2023-05-07T10:08:45;20.50;99.90
12504;DHT22;6316;48.118;-1.690;2023-05-07T10:11:11;20.40;99.90
12504;DHT22;6316;48.118;-1.690;2023-05-07T10:13:38;20.30;99.90
12504;DHT22;6316;48.118;-1.690;2023-05-07T10:16:04;20.30;99.90
12504;DHT22;6316;48.118;-1.690;2023-05-07T10:18:32;20.30;99.90
12504;DHT22;6316;48.118;-1.690;2023-05-07T10:21:08;20.30;99.90
12504;DHT22;6316;48.118;-1.690;2023-05-07T10:23:34;20.30;99.90
12504;DHT22;6316;48.118;-1.690;2023-05-07T10:26:07;20.30;99.90
12504;DHT22;6316;48.118;-1.690;2023-05-07T10:28:39;20.30;99.90
12504;DHT22;6316;48.118;-1.690;2023-05-07T10:33:39;20.30;99.90
12504;DHT22;6316;48.118;-1.690;2023-05-07T10:36:06;20.40;99.90
12504;DHT22;6316;48.118;-1.690;2023-05-07T10:38:36;20.40;99.90
12504;DHT22;6316;48.118;-1.690;2023-05-07T10:41:06;20.50;99.90
12504;DHT22;6316;48.118;-1.690;2023-05-07T10:43:41;20.60;99.90
12504;DHT22;6316;48.118;-1.690;2023-05-07T10:46:18;20.60;99.90
12504;DHT22;6316;48.118;-1.690;2023-05-07T10:51:30;20.50;99.90
12504;DHT22;6316;48.118;-1.690;2023-05-07T10:56:41;20.20;99.90
12504;DHT22;6316;48.118;-1.690;2023-05-07T11:01:50;20.00;99.90
12504;DHT22;6316;48.118;-1.690;2023-05-07T11:04:17;20.10;99.90
12504;DHT22;6316;48.118;-1.690;2023-05-07T11:07:17;20.10;99.90
12504;DHT22;6316;48.118;-1.690;2023-05-07T11:15:07;20.30;99.90
12504;DHT22;6316;48.118;-1.690;2023-05-07T11:17:33;20.40;99.90
12504;DHT22;6316;48.118;-1.690;2023-05-07T11:20:03;20.40;99.90
12504;DHT22;6316;48.118;-1.690;2023-05-07T11:25:02;20.70;99.90
12504;DHT22;6316;48.118;-1.690;2023-05-07T11:27:29;20.80;99.90
12504;DHT22;6316;48.118;-1.690;2023-05-07T11:29:55;20.90;99.90
12504;DHT22;6316;48.118;-1.690;2023-05-07T11:32:23;21.00;99.90
12504;DHT22;6316;48.118;-1.690;2023-05-07T11:34:52;21.10;99.90
12504;DHT22;6316;48.118;-1.690;2023-05-07T11:37:19;21.10;99.90
12504;DHT22;6316;48.118;-1.690;2023-05-07T11:39:45;21.20;99.90
12504;DHT22;6316;48.118;-1.690;2023-05-07T11:42:30;21.20;99.90
12504;DHT22;6316;48.118;-1.690;2023-05-07T11:44:57;21.30;99.90
12504;DHT22;6316;48.118;-1.690;2023-05-07T11:47:23;21.20;99.90
12504;DHT22;6316;48.118;-1.690;2023-05-07T11:49:53;21.10;99.90
12504;DHT22;6316;48.118;-1.690;2023-05-07T11:52:20;21.00;99.90
12504;DHT22;6316;48.118;-1.690;2023-05-07T11:54:53;20.90;99.90
12504;DHT22;6316;48.118;-1.690;2023-05-07T11:57:20;20.70;99.90
12504;DHT22;6316;48.118;-1.690;2023-05-07T11:59:46;20.50;99.90
12504;DHT22;6316;48.118;-1.690;2023-05-07T12:02:16;20.40;99.90
12504;DHT22;6316;48.118;-1.690;2023-05-07T12:04:42;20.30;99.90
12504;DHT22;6316;48.118;-1.690;2023-05-07T12:07:15;20.20;99.90
12504;DHT22;6316;48.118;-1.690;2023-05-07T12:09:41;20.10;99.90
12504;DHT22;6316;48.118;-1.690;2023-05-07T12:12:08;20.10;99.90
12504;DHT22;6316;48.118;-1.690;2023-05-07T12:14:41;20.10;99.90
12504;DHT22;6316;48.118;-1.690;2023-05-07T12:17:11;20.10;99.90
12504;DHT22;6316;48.118;-1.690;2023-05-07T12:19:38;20.10;99.90
12504;DHT22;6316;48.118;-1.690;2023-05-07T12:22:05;20.10;99.90
12504;DHT22;6316;48.118;-1.690;2023-05-07T12:24:48;20.10;99.90
12504;DHT22;6316;48.118;-1.690;2023-05-07T12:27:15;20.00;99.90
12504;DHT22;6316;48.118;-1.690;2023-05-07T12:29:48;20.10;99.90
12504;DHT22;6316;48.118;-1.690;2023-05-07T12:32:19;20.10;99.90
12504;DHT22;6316;48.118;-1.690;2023-05-07T12:34:45;20.20;99.90
12504;DHT22;6316;48.118;-1.690;2023-05-07T12:37:12;20.20;99.90
12504;DHT22;6316;48.118;-1.690;2023-05-07T12:40:03;20.20;99.90
12504;DHT22;6316;48.118;-1.690;2023-05-07T12:42:35;20.20;99.90
12504;DHT22;6316;48.118;-1.690;2023-05-07T12:45:11;20.20;99.90
12504;DHT22;6316;48.118;-1.690;2023-05-07T12:47:37;20.10;99.90
12504;DHT22;6316;48.118;-1.690;2023-05-07T12:50:05;20.10;99.90
12504;DHT22;6316;48.118;-1.690;2023-05-07T12:52:31;20.10;99.90
12504;DHT22;6316;48.118;-1.690;2023-05-07T12:55:07;20.20;99.90
12504;DHT22;6316;48.118;-1.690;2023-05-07T12:57:43;20.30;99.90
12504;DHT22;6316;48.118;-1.690;2023-05-07T13:00:09;20.50;99.90
12504;DHT22;6316;48.118;-1.690;2023-05-07T13:02:40;20.60;99.90
12504;DHT22;6316;48.118;-1.690;2023-05-07T13:05:06;20.80;99.90
12504;DHT22;6316;48.118;-1.690;2023-05-07T13:07:32;20.90;99.90
12504;DHT22;6316;48.118;-1.690;2023-05-07T13:09:58;20.90;99.90
12504;DHT22;6316;48.118;-1.690;2023-05-07T13:12:23;21.00;99.90
12504;DHT22;6316;48.118;-1.690;2023-05-07T13:14:49;21.20;99.90
12504;DHT22;6316;48.118;-1.690;2023-05-07T13:17:15;21.30;99.90
12504;DHT22;6316;48.118;-1.690;2023-05-07T13:19:41;21.40;99.90
12504;DHT22;6316;48.118;-1.690;2023-05-07T13:22:06;21.30;99.90
12504;DHT22;6316;48.118;-1.690;2023-05-07T13:24:32;21.30;99.90
12504;DHT22;6316;48.118;-1.690;2023-05-07T13:26:58;21.20;99.90
12504;DHT22;6316;48.118;-1.690;2023-05-07T13:29:23;21.20;99.90
12504;DHT22;6316;48.118;-1.690;2023-05-07T13:31:57;21.20;99.90
12504;DHT22;6316;48.118;-1.690;2023-05-07T13:34:22;21.10;99.90
12504;DHT22;6316;48.118;-1.690;2023-05-07T13:36:48;21.00;99.90
12504;DHT22;6316;48.118;-1.690;2023-05-07T13:39:14;21.00;99.90
12504;DHT22;6316;48.118;-1.690;2023-05-07T13:41:39;21.10;99.90
12504;DHT22;6316;48.118;-1.690;2023-05-07T13:44:05;21.30;99.90
12504;DHT22;6316;48.118;-1.690;2023-05-07T13:46:31;21.50;99.90
12504;DHT22;6316;48.118;-1.690;2023-05-07T13:48:56;21.60;99.90
12504;DHT22;6316;48.118;-1.690;2023-05-07T13:51:22;21.60;99.90
12504;DHT22;6316;48.118;-1.690;2023-05-07T13:53:48;21.60;99.90
12504;DHT22;6316;48.118;-1.690;2023-05-07T13:56:14;21.50;99.90
12504;DHT22;6316;48.118;-1.690;2023-05-07T13:58:40;21.50;99.90
12504;DHT22;6316;48.118;-1.690;2023-05-07T14:01:06;21.40;99.90
12504;DHT22;6316;48.118;-1.690;2023-05-07T14:03:32;21.50;99.90
12504;DHT22;6316;48.118;-1.690;2023-05-07T14:05:59;21.60;99.90
12504;DHT22;6316;48.118;-1.690;2023-05-07T14:08:27;21.60;99.90
12504;DHT22;6316;48.118;-1.690;2023-05-07T14:10:53;21.60;99.90
12504;DHT22;6316;48.118;-1.690;2023-05-07T14:13:18;21.60;99.90
12504;DHT22;6316;48.118;-1.690;2023-05-07T14:15:44;21.70;99.90
12504;DHT22;6316;48.118;-1.690;2023-05-07T14:18:12;21.70;99.90
12504;DHT22;6316;48.118;-1.690;2023-05-07T14:20:38;21.70;99.90
12504;DHT22;6316;48.118;-1.690;2023-05-07T14:23:04;21.80;99.90
12504;DHT22;6316;48.118;-1.690;2023-05-07T14:25:30;21.80;99.90
12504;DHT22;6316;48.118;-1.690;2023-05-07T14:27:55;21.80;99.90
12504;DHT22;6316;48.118;-1.690;2023-05-07T14:30:21;21.80;99.90
12504;DHT22;6316;48.118;-1.690;2023-05-07T14:32:49;21.70;99.90
12504;DHT22;6316;48.118;-1.690;2023-05-07T14:35:16;21.60;99.90
12504;DHT22;6316;48.118;-1.690;2023-05-07T14:37:42;21.40;99.90
12504;DHT22;6316;48.118;-1.690;2023-05-07T14:40:08;21.20;99.90
12504;DHT22;6316;48.118;-1.690;2023-05-07T14:42:34;21.10;99.90
12504;DHT22;6316;48.118;-1.690;2023-05-07T14:44:59;21.10;99.90
12504;DHT22;6316;48.118;-1.690;2023-05-07T14:47:25;21.10;99.90
12504;DHT22;6316;48.118;-1.690;2023-05-07T14:49:51;21.10;99.90
12504;DHT22;6316;48.118;-1.690;2023-05-07T14:52:17;21.20;99.90
12504;DHT22;6316;48.118;-1.690;2023-05-07T14:54:42;21.20;99.90
12504;DHT22;6316;48.118;-1.690;2023-05-07T14:57:10;21.20;99.90
12504;DHT22;6316;48.118;-1.690;2023-05-07T14:59:36;21.30;99.90
12504;DHT22;6316;48.118;-1.690;2023-05-07T15:02:02;21.40;99.90
12504;DHT22;6316;48.118;-1.690;2023-05-07T15:04:30;21.60;99.90
12504;DHT22;6316;48.118;-1.690;2023-05-07T15:06:56;21.70;99.90
12504;DHT22;6316;48.118;-1.690;2023-05-07T15:09:21;21.60;99.90
12504;DHT22;6316;48.118;-1.690;2023-05-07T15:11:47;21.50;99.90
12504;DHT22;6316;48.118;-1.690;2023-05-07T15:14:13;21.30;99.90
12504;DHT22;6316;48.118;-1.690;2023-05-07T15:16:38;21.20;99.90
12504;DHT22;6316;48.118;-1.690;2023-05-07T15:19:04;21.10;99.90
12504;DHT22;6316;48.118;-1.690;2023-05-07T15:21:29;21.00;99.90
12504;DHT22;6316;48.118;-1.690;2023-05-07T15:23:58;20.90;99.90
12504;DHT22;6316;48.118;-1.690;2023-05-07T15:26:23;20.90;99.90
12504;DHT22;6316;48.118;-1.690;2023-05-07T15:28:50;20.80;99.90
12504;DHT22;6316;48.118;-1.690;2023-05-07T15:31:15;20.80;99.90
12504;DHT22;6316;48.118;-1.690;2023-05-07T15:33:42;20.80;99.90
12504;DHT22;6316;48.118;-1.690;2023-05-07T15:36:08;20.70;99.90
12504;DHT22;6316;48.118;-1.690;2023-05-07T15:38:34;20.70;99.90
12504;DHT22;6316;48.118;-1.690;2023-05-07T15:41:00;20.70;99.90
12504;DHT22;6316;48.118;-1.690;2023-05-07T15:43:25;20.80;99.90
12504;DHT22;6316;48.118;-1.690;2023-05-07T15:45:51;20.90;99.90
12504;DHT22;6316;48.118;-1.690;2023-05-07T15:48:16;20.90;99.90